Lodgepole, Nebraska
Current Conditions -  °F | °C
As of 6:53 PM on Sunday 25 Jan 2015 (Local Time) from KSNY Reporting Station
Clear Clear  
Wind Chill:   Ceiling: Unl
Heat Index:   Visibility: 10mi
Dew Point: -1°   Wind: 14mph
Humidity: 68%   Direction: 280°W
Pressure: 30.11"   Gusts: NA
Location:  41.15°N, 102.64°W
Report Text: KSNY 260153Z AUTO 28012KT 10SM CLR 04/M01 A3011 RMK AO2 SLP212 T00441011
Loading
Personal Weather Stations






























Interactive Weather Map New forecast layout! Learn more

10-Day Weather Forecast

Advertisements
Track Severe Weather on mobile